Time;durP1;ratioP1;P1;durP2;ratioP2;P2;SDS_P1;SDS_P2;PMS_P1;PMS_P2;Temp;Humidity;BMP_temperature;BMP_pressure;BME280_temperature;BME280_humidity;BME280_pressure;Samples;Min_cycle;Max_cycle;Signal;HPM_P1;HPM_P2
2021/12/06 00:00:26;;;;;;;206.77;62.67;;;;;;;;;;5136355;27;20194;-69
2021/12/06 00:03:04;;;;;;;199.40;64.17;;;;;;;;;;5136188;27;20189;-69
2021/12/06 00:05:32;;;;;;;199.13;59.40;;;;;;;;;;5136300;27;20186;-69
2021/12/06 00:08:00;;;;;;;204.70;63.70;;;;;;;;;;5136052;27;20194;-69
2021/12/06 00:10:27;;;;;;;190.23;63.77;;;;;;;;;;5134979;27;20312;-69
2021/12/06 00:12:54;;;;;;;190.53;62.77;;;;;;;;;;5135301;27;20229;-69
2021/12/06 00:15:22;;;;;;;190.07;62.53;;;;;;;;;;5135699;27;20193;-69
2021/12/06 00:17:49;;;;;;;197.37;63.37;;;;;;;;;;5136038;27;20204;-69
2021/12/06 00:20:17;;;;;;;191.87;64.00;;;;;;;;;;5135963;27;20200;-69
2021/12/06 00:22:44;;;;;;;200.00;64.40;;;;;;;;;;5135979;27;20199;-69
2021/12/06 00:25:14;;;;;;;196.20;64.13;;;;;;;;;;5135519;27;20200;-69
2021/12/06 00:27:41;;;;;;;189.73;64.23;;;;;;;;;;5135782;27;20193;-69
2021/12/06 00:30:15;;;;;;;178.63;62.30;;;;;;;;;;5135751;27;20201;-69
2021/12/06 00:32:44;;;;;;;179.17;61.37;;;;;;;;;;5135728;27;20197;-69
2021/12/06 00:35:17;;;;;;;165.50;62.00;;;;;;;;;;5135562;27;20220;-69
2021/12/06 00:37:58;;;;;;;172.67;62.80;;;;;;;;;;5135325;27;20197;-69
2021/12/06 00:40:31;;;;;;;162.73;61.43;;;;;;;;;;5135515;27;20189;-69
2021/12/06 00:42:59;;;;;;;144.73;58.33;;;;;;;;;;5135286;27;20656;-69
2021/12/06 00:45:26;;;;;;;147.80;59.63;;;;;;;;;;5135801;27;20320;-69
2021/12/06 00:47:54;;;;;;;147.40;56.93;;;;;;;;;;5133852;27;20193;-69
2021/12/06 00:50:23;;;;;;;137.13;57.43;;;;;;;;;;5133869;27;20724;-69
2021/12/06 00:52:51;;;;;;;140.27;57.17;;;;;;;;;;5133801;27;20625;-69
2021/12/06 00:55:20;;;;;;;134.07;57.40;;;;;;;;;;5133741;27;20281;-69
2021/12/06 00:57:49;;;;;;;132.23;54.47;;;;;;;;;;5134000;27;20208;-69
2021/12/06 01:00:38;;;;;;;134.50;53.87;;;;;;;;;;5134898;27;20644;-69
2021/12/06 01:03:12;;;;;;;146.27;58.00;;;;;;;;;;5133738;27;20194;-69
2021/12/06 01:05:40;;;;;;;151.17;59.30;;;;;;;;;;5133913;27;20268;-69
2021/12/06 01:08:09;;;;;;;144.87;60.23;;;;;;;;;;5133672;27;20201;-69
2021/12/06 01:10:38;;;;;;;160.03;62.03;;;;;;;;;;5134569;27;20266;-69
2021/12/06 01:13:06;;;;;;;177.73;65.07;;;;;;;;;;5133215;27;20225;-69
2021/12/06 01:15:35;;;;;;;169.17;63.90;;;;;;;;;;5133674;27;20200;-69
2021/12/06 01:18:04;;;;;;;170.63;65.10;;;;;;;;;;5133605;27;20202;-69
2021/12/06 01:20:40;;;;;;;170.77;63.70;;;;;;;;;;5133315;27;20556;-69
2021/12/06 01:23:12;;;;;;;171.67;64.47;;;;;;;;;;5133921;27;20304;-69
2021/12/06 01:33:34;;;;;;;184.33;65.13;;;;;;;;;;5133042;27;20185;-69
2021/12/06 01:41:30;;;;;;;173.27;61.73;;;;;;;;;;5133227;27;20590;-69
2021/12/06 01:44:18;;;;;;;169.23;61.70;;;;;;;;;;5133347;27;20190;-69
2021/12/06 01:46:57;;;;;;;159.07;61.83;;;;;;;;;;5133165;27;20580;-69
2021/12/06 01:49:27;;;;;;;155.87;61.40;;;;;;;;;;5134387;27;20181;-69
2021/12/06 01:51:58;;;;;;;160.33;63.23;;;;;;;;;;5133129;27;20217;-69
2021/12/06 01:54:29;;;;;;;169.37;63.50;;;;;;;;;;5133353;27;20192;-69
2021/12/06 01:56:57;;;;;;;178.37;65.63;;;;;;;;;;5133068;27;20228;-69
2021/12/06 01:59:25;;;;;;;171.80;62.90;;;;;;;;;;5132435;27;20201;-69
2021/12/06 02:01:55;;;;;;;177.27;66.57;;;;;;;;;;5132979;27;20261;-69
2021/12/06 02:04:24;;;;;;;148.00;60.23;;;;;;;;;;5132943;27;20208;-69
2021/12/06 02:06:51;;;;;;;157.00;60.60;;;;;;;;;;5132903;27;20236;-69
2021/12/06 02:09:21;;;;;;;147.73;60.53;;;;;;;;;;5132561;27;20239;-69
2021/12/06 02:11:51;;;;;;;155.70;62.17;;;;;;;;;;5115763;27;20233;-69
2021/12/06 02:14:29;;;;;;;164.67;62.27;;;;;;;;;;5132404;27;20560;-69
2021/12/06 02:17:12;;;;;;;162.57;61.90;;;;;;;;;;5132923;28;20262;-69
2021/12/06 02:19:45;;;;;;;154.30;62.73;;;;;;;;;;5132509;28;20655;-69
2021/12/06 02:22:16;;;;;;;161.00;60.10;;;;;;;;;;5116060;28;20185;-69
2021/12/06 02:24:44;;;;;;;163.37;61.70;;;;;;;;;;5132576;28;20190;-69
2021/12/06 02:27:13;;;;;;;158.50;62.07;;;;;;;;;;5132613;28;20193;-69
2021/12/06 02:29:44;;;;;;;158.60;63.13;;;;;;;;;;5132505;28;20201;-69
2021/12/06 02:32:14;;;;;;;171.43;62.83;;;;;;;;;;5132624;28;20209;-69
2021/12/06 02:34:51;;;;;;;172.87;62.23;;;;;;;;;;5133309;27;20196;-69
2021/12/06 02:37:22;;;;;;;171.13;63.27;;;;;;;;;;5137940;27;20189;-69
2021/12/06 02:39:51;;;;;;;170.50;63.27;;;;;;;;;;5137923;27;20193;-69
2021/12/06 02:42:18;;;;;;;174.83;62.97;;;;;;;;;;5136421;27;20197;-69
2021/12/06 02:44:46;;;;;;;177.03;63.93;;;;;;;;;;5137774;27;20201;-69
2021/12/06 02:47:16;;;;;;;189.73;64.50;;;;;;;;;;5136453;27;20222;-69
2021/12/06 02:49:44;;;;;;;189.43;67.50;;;;;;;;;;5137660;27;20197;-69
2021/12/06 02:52:12;;;;;;;183.50;62.27;;;;;;;;;;5137446;27;20303;-69
2021/12/06 02:54:41;;;;;;;188.10;63.90;;;;;;;;;;5136422;27;20201;-69
2021/12/06 02:59:44;;;;;;;173.90;64.47;;;;;;;;;;5119973;27;20186;-69
2021/12/06 03:02:15;;;;;;;178.63;62.73;;;;;;;;;;5135992;27;20284;-69
2021/12/06 03:04:44;;;;;;;170.13;61.60;;;;;;;;;;5135966;27;20561;-69
2021/12/06 03:07:11;;;;;;;167.23;62.13;;;;;;;;;;5137026;27;20229;-69
2021/12/06 03:09:40;;;;;;;173.83;61.17;;;;;;;;;;5136189;27;20288;-69
2021/12/06 03:12:17;;;;;;;172.93;63.27;;;;;;;;;;5135664;27;20255;-69
2021/12/06 03:14:51;;;;;;;173.17;62.00;;;;;;;;;;5135883;27;20181;-69
2021/12/06 03:17:24;;;;;;;176.30;64.90;;;;;;;;;;5135875;27;20186;-69
2021/12/06 03:19:52;;;;;;;173.83;61.93;;;;;;;;;;5137196;27;20201;-69
2021/12/06 03:22:20;;;;;;;161.77;61.07;;;;;;;;;;5137027;27;20202;-69
2021/12/06 03:24:52;;;;;;;175.07;61.43;;;;;;;;;;5135628;27;20641;-69
2021/12/06 03:27:20;;;;;;;175.20;63.27;;;;;;;;;;5118759;27;20193;-69
2021/12/06 03:29:50;;;;;;;172.87;61.77;;;;;;;;;;5135858;27;20212;-69
2021/12/06 03:32:19;;;;;;;171.17;62.20;;;;;;;;;;5135658;27;20232;-69
2021/12/06 03:34:47;;;;;;;174.50;59.80;;;;;;;;;;5135334;27;20676;-69
2021/12/06 03:37:15;;;;;;;165.50;61.67;;;;;;;;;;5135481;27;20201;-69
2021/12/06 03:39:45;;;;;;;174.03;63.27;;;;;;;;;;5135279;27;20193;-69
2021/12/06 03:42:23;;;;;;;157.50;59.13;;;;;;;;;;5135461;27;20206;-69
2021/12/06 03:44:53;;;;;;;165.30;61.00;;;;;;;;;;5135179;27;20649;-69
2021/12/06 03:47:27;;;;;;;164.80;60.83;;;;;;;;;;5134383;27;20197;-69
2021/12/06 03:49:56;;;;;;;166.27;58.77;;;;;;;;;;5135358;27;20261;-69
2021/12/06 03:52:24;;;;;;;157.00;59.73;;;;;;;;;;5135004;27;20221;-69
2021/12/06 03:54:53;;;;;;;163.07;59.27;;;;;;;;;;5136230;27;20194;-69
2021/12/06 03:57:20;;;;;;;162.80;59.40;;;;;;;;;;5134966;27;20205;-69
2021/12/06 03:59:49;;;;;;;177.60;61.90;;;;;;;;;;5136182;27;20201;-69
2021/12/06 04:02:19;;;;;;;167.90;59.87;;;;;;;;;;5134884;27;20209;-69
2021/12/06 04:04:48;;;;;;;161.23;57.97;;;;;;;;;;5136350;27;20186;-69
2021/12/06 04:07:16;;;;;;;156.97;56.73;;;;;;;;;;5134650;27;20235;-69
2021/12/06 04:09:43;;;;;;;150.83;59.23;;;;;;;;;;5134998;27;20193;-70
2021/12/06 04:12:12;;;;;;;155.17;57.67;;;;;;;;;;5135691;27;20251;-69
2021/12/06 04:14:40;;;;;;;156.53;60.07;;;;;;;;;;5134870;27;20200;-69
2021/12/06 04:17:09;;;;;;;145.17;56.10;;;;;;;;;;5117786;27;20202;-69
2021/12/06 04:19:37;;;;;;;143.63;57.57;;;;;;;;;;5117885;27;20674;-69
2021/12/06 04:22:05;;;;;;;166.60;60.73;;;;;;;;;;5134580;27;20593;-69
2021/12/06 04:24:33;;;;;;;157.97;60.03;;;;;;;;;;5134802;27;20204;-69
2021/12/06 04:27:12;;;;;;;162.30;59.43;;;;;;;;;;5134614;27;20207;-69
2021/12/06 04:29:47;;;;;;;168.60;60.83;;;;;;;;;;5134305;27;20663;-69
2021/12/06 04:32:18;;;;;;;164.47;60.17;;;;;;;;;;5134568;27;20213;-69
2021/12/06 04:34:46;;;;;;;177.40;61.80;;;;;;;;;;5134537;27;20197;-69
2021/12/06 04:37:14;;;;;;;163.17;55.60;;;;;;;;;;5117403;27;20250;-69
2021/12/06 04:39:43;;;;;;;180.50;64.20;;;;;;;;;;5134111;27;20201;-69
2021/12/06 04:42:10;;;;;;;176.53;62.13;;;;;;;;;;5134177;27;20212;-69
2021/12/06 04:44:38;;;;;;;170.97;60.93;;;;;;;;;;5134287;27;20198;-69
2021/12/06 04:47:07;;;;;;;165.33;63.20;;;;;;;;;;5134052;27;20224;-69
2021/12/06 04:49:35;;;;;;;176.83;63.57;;;;;;;;;;5134245;27;20197;-69
2021/12/06 04:52:06;;;;;;;169.47;62.33;;;;;;;;;;5134092;27;20244;-69
2021/12/06 04:54:38;;;;;;;175.43;65.43;;;;;;;;;;5133852;27;20557;-69
2021/12/06 04:57:21;;;;;;;164.47;63.90;;;;;;;;;;5133578;27;20641;-69
2021/12/06 04:59:52;;;;;;;177.50;65.60;;;;;;;;;;5134135;27;20185;-70
2021/12/06 05:02:28;;;;;;;162.80;60.83;;;;;;;;;;5133600;27;20679;-69
2021/12/06 05:05:09;;;;;;;172.57;62.60;;;;;;;;;;5110343;27;20217;-70
2021/12/06 05:07:42;;;;;;;171.80;61.67;;;;;;;;;;5123689;27;20221;-68
2021/12/06 05:10:13;;;;;;;182.10;65.10;;;;;;;;;;5120064;27;20232;-69
2021/12/06 05:12:41;;;;;;;171.77;63.27;;;;;;;;;;5102872;27;20240;-73
2021/12/06 05:15:10;;;;;;;167.87;63.10;;;;;;;;;;5120656;27;20226;-68
2021/12/06 05:17:38;;;;;;;162.43;63.43;;;;;;;;;;5125951;27;20591;-68
2021/12/06 05:20:06;;;;;;;150.37;59.57;;;;;;;;;;5125173;27;21127;-68
2021/12/06 05:22:34;;;;;;;142.07;57.43;;;;;;;;;;5113312;28;20220;-71
2021/12/06 05:25:03;;;;;;;137.57;57.50;;;;;;;;;;5113076;27;20218;-68
2021/12/06 05:27:31;;;;;;;131.63;57.03;;;;;;;;;;5112054;28;20233;-69
2021/12/06 05:30:03;;;;;;;132.10;58.17;;;;;;;;;;5112298;28;20270;-70
2021/12/06 05:32:34;;;;;;;121.80;55.17;;;;;;;;;;5112048;28;20588;-69
2021/12/06 05:35:07;;;;;;;128.60;54.87;;;;;;;;;;5111225;28;20309;-69
2021/12/06 05:37:41;;;;;;;132.10;58.07;;;;;;;;;;5113292;28;20229;-68
2021/12/06 05:40:13;;;;;;;131.80;57.10;;;;;;;;;;5113410;28;20350;-68
2021/12/06 05:42:40;;;;;;;118.90;55.07;;;;;;;;;;5113121;28;20584;-69
2021/12/06 05:45:10;;;;;;;130.53;56.50;;;;;;;;;;5112760;28;20252;-68
2021/12/06 05:47:38;;;;;;;128.03;55.57;;;;;;;;;;5115442;27;20557;-67
2021/12/06 05:50:06;;;;;;;138.13;57.73;;;;;;;;;;5122847;27;20218;-68
2021/12/06 05:52:34;;;;;;;130.03;56.73;;;;;;;;;;5121735;27;20229;-70
2021/12/06 05:55:03;;;;;;;123.00;56.10;;;;;;;;;;5129184;27;20221;-68
2021/12/06 05:57:30;;;;;;;133.23;59.03;;;;;;;;;;5133137;27;20224;-67
2021/12/06 05:59:58;;;;;;;134.00;59.63;;;;;;;;;;5132199;27;20221;-67
2021/12/06 06:02:25;;;;;;;136.50;59.37;;;;;;;;;;5123973;27;20244;-69
2021/12/06 06:04:53;;;;;;;131.03;59.60;;;;;;;;;;5120790;27;20217;-70
2021/12/06 06:07:20;;;;;;;130.10;58.60;;;;;;;;;;5121574;27;20348;-72
2021/12/06 06:09:48;;;;;;;131.33;57.47;;;;;;;;;;5122624;28;20220;-69
2021/12/06 06:12:15;;;;;;;146.07;58.60;;;;;;;;;;5121387;27;20279;-65
2021/12/06 06:14:43;;;;;;;148.37;62.23;;;;;;;;;;5121480;27;20279;-68
2021/12/06 06:17:13;;;;;;;145.40;60.97;;;;;;;;;;5122849;28;20224;-67
2021/12/06 06:19:46;;;;;;;159.13;64.03;;;;;;;;;;5123046;28;20186;-64
2021/12/06 06:22:14;;;;;;;150.60;59.67;;;;;;;;;;5121988;28;20280;-72
2021/12/06 06:24:41;;;;;;;155.33;61.87;;;;;;;;;;5121634;28;20197;-68
2021/12/06 06:27:09;;;;;;;154.53;61.37;;;;;;;;;;5121245;28;20190;-65
2021/12/06 06:29:37;;;;;;;162.00;61.53;;;;;;;;;;5123012;27;20198;-67
2021/12/06 06:32:05;;;;;;;158.43;63.03;;;;;;;;;;5111533;28;20210;-66
2021/12/06 06:34:33;;;;;;;160.03;58.13;;;;;;;;;;5112901;28;20198;-66
2021/12/06 06:37:00;;;;;;;150.23;60.93;;;;;;;;;;5112648;28;20243;-66
2021/12/06 06:39:28;;;;;;;150.67;57.63;;;;;;;;;;5112876;28;20213;-66
2021/12/06 06:41:55;;;;;;;143.80;58.03;;;;;;;;;;5112793;28;20198;-66
2021/12/06 06:44:22;;;;;;;158.63;62.50;;;;;;;;;;5112655;28;20293;-66
2021/12/06 06:46:51;;;;;;;161.17;61.27;;;;;;;;;;5112869;28;20206;-66
2021/12/06 06:49:19;;;;;;;166.83;61.23;;;;;;;;;;5111310;28;20202;-66
2021/12/06 06:51:46;;;;;;;173.63;64.77;;;;;;;;;;5112724;28;20229;-66
2021/12/06 06:54:15;;;;;;;160.20;64.97;;;;;;;;;;5112572;28;20209;-66
2021/12/06 06:56:43;;;;;;;161.87;63.43;;;;;;;;;;5112824;28;20205;-66
2021/12/06 06:59:10;;;;;;;164.07;60.20;;;;;;;;;;5112320;28;20562;-66
2021/12/06 07:01:37;;;;;;;156.40;61.63;;;;;;;;;;5112580;28;20542;-66
2021/12/06 07:04:08;;;;;;;152.97;60.90;;;;;;;;;;5113028;28;20190;-66
2021/12/06 07:06:35;;;;;;;163.70;62.17;;;;;;;;;;5112624;28;20297;-66
2021/12/06 07:09:03;;;;;;;162.27;59.27;;;;;;;;;;5112394;28;20202;-66
2021/12/06 07:11:31;;;;;;;171.83;61.73;;;;;;;;;;5112779;28;20241;-66
2021/12/06 07:13:58;;;;;;;156.77;60.20;;;;;;;;;;5112717;28;20257;-67
2021/12/06 07:16:27;;;;;;;160.40;61.33;;;;;;;;;;5112836;28;20202;-67
2021/12/06 07:18:54;;;;;;;165.13;61.13;;;;;;;;;;5111626;28;20194;-66
2021/12/06 07:21:22;;;;;;;159.63;61.10;;;;;;;;;;5112746;28;20201;-66
2021/12/06 07:23:51;;;;;;;163.40;63.03;;;;;;;;;;5116605;28;20229;-66
2021/12/06 07:26:20;;;;;;;167.40;59.43;;;;;;;;;;5116444;28;20198;-66
2021/12/06 07:28:49;;;;;;;163.17;60.13;;;;;;;;;;5116172;28;20730;-66
2021/12/06 07:31:18;;;;;;;155.40;59.57;;;;;;;;;;5116004;28;20565;-66
2021/12/06 07:33:47;;;;;;;157.60;59.70;;;;;;;;;;5116225;28;20229;-66
2021/12/06 07:36:22;;;;;;;147.53;59.10;;;;;;;;;;5116195;28;20194;-66
2021/12/06 07:38:50;;;;;;;153.63;57.93;;;;;;;;;;5114858;28;20269;-66
2021/12/06 07:41:19;;;;;;;147.43;58.27;;;;;;;;;;5116137;28;20201;-67
2021/12/06 07:43:46;;;;;;;143.33;58.30;;;;;;;;;;5115836;28;20232;-66
2021/12/06 07:46:15;;;;;;;174.20;65.07;;;;;;;;;;5116157;28;20209;-67
2021/12/06 07:48:42;;;;;;;177.10;65.17;;;;;;;;;;5115918;28;20202;-66
2021/12/06 07:51:09;;;;;;;164.33;60.47;;;;;;;;;;5115708;28;20194;-66
2021/12/06 07:53:38;;;;;;;162.27;57.93;;;;;;;;;;5115672;28;20229;-66
2021/12/06 07:56:06;;;;;;;162.07;58.10;;;;;;;;;;5115715;28;20591;-66
2021/12/06 07:58:33;;;;;;;152.10;58.30;;;;;;;;;;5115564;28;20205;-66
2021/12/06 08:01:02;;;;;;;165.37;61.37;;;;;;;;;;5114337;28;20202;-66
2021/12/06 08:03:31;;;;;;;172.43;60.30;;;;;;;;;;5115809;28;20242;-66
2021/12/06 08:06:00;;;;;;;163.43;61.60;;;;;;;;;;5115815;28;20202;-67
2021/12/06 08:08:30;;;;;;;157.97;62.03;;;;;;;;;;5115583;28;20695;-66
2021/12/06 08:11:10;;;;;;;163.13;62.20;;;;;;;;;;5115653;28;20186;-66
2021/12/06 08:13:41;;;;;;;153.80;58.70;;;;;;;;;;5114235;28;20210;-66
2021/12/06 08:16:12;;;;;;;175.90;62.47;;;;;;;;;;5115327;28;20575;-66
2021/12/06 08:18:40;;;;;;;162.33;62.57;;;;;;;;;;5115457;28;20187;-66
2021/12/06 08:21:07;;;;;;;148.77;59.17;;;;;;;;;;5115302;28;20201;-66
2021/12/06 08:23:35;;;;;;;147.17;58.03;;;;;;;;;;5114957;28;20688;-66
2021/12/06 08:26:05;;;;;;;153.30;57.70;;;;;;;;;;5115354;28;20205;-66
2021/12/06 08:28:34;;;;;;;160.53;58.43;;;;;;;;;;5114843;28;20679;-66
2021/12/06 08:31:03;;;;;;;158.13;59.90;;;;;;;;;;5115125;28;20198;-66
2021/12/06 08:33:31;;;;;;;160.27;60.80;;;;;;;;;;5114676;28;20234;-66
2021/12/06 08:36:00;;;;;;;162.47;57.23;;;;;;;;;;5114035;28;20237;-66
2021/12/06 08:38:30;;;;;;;162.50;62.97;;;;;;;;;;5113831;28;20661;-67
2021/12/06 08:40:59;;;;;;;177.60;62.20;;;;;;;;;;5114931;28;20198;-67
2021/12/06 08:43:26;;;;;;;174.40;62.47;;;;;;;;;;5115147;27;20559;-67
2021/12/06 08:45:58;;;;;;;170.30;62.77;;;;;;;;;;5113608;28;20911;-67
2021/12/06 08:48:29;;;;;;;151.87;57.20;;;;;;;;;;5114750;28;20182;-67
2021/12/06 08:50:59;;;;;;;158.70;58.63;;;;;;;;;;5114993;28;20186;-67
2021/12/06 08:53:26;;;;;;;176.07;60.07;;;;;;;;;;5114859;28;20226;-67
2021/12/06 08:55:56;;;;;;;176.30;61.03;;;;;;;;;;5114612;28;20202;-67
2021/12/06 08:58:23;;;;;;;148.83;56.27;;;;;;;;;;5114299;28;20657;-67
2021/12/06 09:00:50;;;;;;;156.50;56.97;;;;;;;;;;5114656;28;20197;-67
2021/12/06 09:03:18;;;;;;;164.27;59.17;;;;;;;;;;5113096;28;20201;-68
2021/12/06 09:05:49;;;;;;;178.07;62.43;;;;;;;;;;5114300;28;20209;-68
2021/12/06 09:08:16;;;;;;;174.93;61.37;;;;;;;;;;5114497;28;20289;-67
2021/12/06 09:10:49;;;;;;;170.97;58.90;;;;;;;;;;5114242;28;20650;-68
2021/12/06 09:13:18;;;;;;;146.83;55.60;;;;;;;;;;5113067;28;20217;-68
2021/12/06 09:15:47;;;;;;;171.00;56.33;;;;;;;;;;5114148;28;20206;-67
2021/12/06 09:18:14;;;;;;;170.00;56.07;;;;;;;;;;5114256;28;20301;-67
2021/12/06 09:20:43;;;;;;;183.77;57.67;;;;;;;;;;5114044;28;20236;-67
2021/12/06 09:23:12;;;;;;;170.80;55.33;;;;;;;;;;5114074;28;20213;-67
2021/12/06 09:25:42;;;;;;;182.03;55.27;;;;;;;;;;5114030;28;20197;-67
2021/12/06 09:28:11;;;;;;;182.07;57.27;;;;;;;;;;5113959;28;20183;-67
2021/12/06 09:30:39;;;;;;;183.97;56.13;;;;;;;;;;5114104;28;20202;-67
2021/12/06 09:33:08;;;;;;;201.67;60.03;;;;;;;;;;5112701;28;20294;-67
2021/12/06 09:35:39;;;;;;;182.73;55.90;;;;;;;;;;5112584;28;20204;-67
2021/12/06 09:38:07;;;;;;;182.30;55.33;;;;;;;;;;5113817;28;20527;-67
2021/12/06 09:40:37;;;;;;;203.10;60.70;;;;;;;;;;5113715;28;20232;-67
2021/12/06 09:43:07;;;;;;;174.73;53.07;;;;;;;;;;5113825;27;20240;-67
2021/12/06 09:45:35;;;;;;;197.50;61.53;;;;;;;;;;5113179;28;20186;-67
2021/12/06 09:48:04;;;;;;;179.47;53.30;;;;;;;;;;5113688;28;20202;-67
2021/12/06 09:50:37;;;;;;;204.87;59.60;;;;;;;;;;5113842;28;20202;-67
2021/12/06 09:53:07;;;;;;;181.07;55.90;;;;;;;;;;5113551;28;20267;-66
2021/12/06 09:55:35;;;;;;;191.80;57.23;;;;;;;;;;5113728;28;20202;-67
2021/12/06 09:58:04;;;;;;;182.67;54.90;;;;;;;;;;5113384;28;20671;-67
2021/12/06 10:00:37;;;;;;;195.13;58.00;;;;;;;;;;5095752;28;20201;-66
2021/12/06 10:03:04;;;;;;;191.33;56.07;;;;;;;;;;5113447;28;20190;-67
2021/12/06 10:05:32;;;;;;;175.50;57.70;;;;;;;;;;5113595;28;20297;-67
2021/12/06 10:08:00;;;;;;;166.03;54.23;;;;;;;;;;5112010;28;20205;-67
2021/12/06 10:10:28;;;;;;;185.07;56.80;;;;;;;;;;5113407;28;20262;-67
2021/12/06 10:12:57;;;;;;;190.03;55.27;;;;;;;;;;5113226;28;20234;-67
2021/12/06 10:15:28;;;;;;;171.17;53.40;;;;;;;;;;5112067;28;20629;-67
2021/12/06 10:17:58;;;;;;;196.20;55.33;;;;;;;;;;5113380;28;20186;-67
2021/12/06 10:20:28;;;;;;;189.03;52.57;;;;;;;;;;5113459;28;20241;-67
2021/12/06 10:22:55;;;;;;;169.33;47.70;;;;;;;;;;5113258;28;20194;-67
2021/12/06 10:25:33;;;;;;;184.43;49.77;;;;;;;;;;5112911;28;20194;-67
2021/12/06 10:28:12;;;;;;;178.70;49.33;;;;;;;;;;5113070;28;20197;-67
2021/12/06 10:30:54;;;;;;;204.57;50.60;;;;;;;;;;5113052;28;20547;-67
2021/12/06 10:33:28;;;;;;;196.80;51.23;;;;;;;;;;5112753;28;20206;-67
2021/12/06 10:36:08;;;;;;;204.67;52.27;;;;;;;;;;5113463;28;20190;-67
2021/12/06 10:38:41;;;;;;;204.30;53.50;;;;;;;;;;5113169;28;20193;-67
2021/12/06 10:41:11;;;;;;;187.40;53.63;;;;;;;;;;5111978;28;20197;-67
2021/12/06 10:43:40;;;;;;;208.00;54.60;;;;;;;;;;5113221;28;20190;-67
2021/12/06 10:46:08;;;;;;;192.00;51.90;;;;;;;;;;5113235;28;20201;-67
2021/12/06 10:48:38;;;;;;;197.07;50.00;;;;;;;;;;5113039;28;20198;-67
2021/12/06 10:51:13;;;;;;;217.23;53.40;;;;;;;;;;5113028;28;20194;-67
2021/12/06 10:53:47;;;;;;;195.30;48.73;;;;;;;;;;5112792;28;20216;-67
2021/12/06 10:56:24;;;;;;;217.80;51.83;;;;;;;;;;5114682;28;20186;-67
2021/12/06 10:58:54;;;;;;;222.90;52.73;;;;;;;;;;5116964;28;20209;-67
2021/12/06 11:01:33;;;;;;;236.57;56.40;;;;;;;;;;5117252;28;20226;-67
2021/12/06 11:04:05;;;;;;;216.87;51.27;;;;;;;;;;5116935;28;20217;-67
2021/12/06 11:06:44;;;;;;;248.63;51.63;;;;;;;;;;5116890;28;20190;-67
2021/12/06 11:09:15;;;;;;;219.83;51.43;;;;;;;;;;5115595;28;20190;-67
2021/12/06 11:11:49;;;;;;;240.03;52.40;;;;;;;;;;5116403;27;20720;-67
2021/12/06 11:14:23;;;;;;;258.10;53.27;;;;;;;;;;5116666;28;20301;-67
2021/12/06 11:16:56;;;;;;;253.47;56.03;;;;;;;;;;5116730;28;20194;-67
2021/12/06 11:19:25;;;;;;;228.80;51.63;;;;;;;;;;5116565;28;20214;-67
2021/12/06 11:21:55;;;;;;;230.50;53.17;;;;;;;;;;5115485;28;20198;-67
2021/12/06 11:24:25;;;;;;;237.00;55.47;;;;;;;;;;5116356;28;20671;-67
2021/12/06 11:26:52;;;;;;;272.97;58.43;;;;;;;;;;5115101;28;20200;-67
2021/12/06 11:29:35;;;;;;;185.53;46.77;;;;;;;;;;5116311;28;20633;-67
2021/12/06 11:32:20;;;;;;;203.73;49.53;;;;;;;;;;5116594;28;20321;-67
2021/12/06 11:34:50;;;;;;;180.67;45.73;;;;;;;;;;5116403;28;20218;-74
2021/12/06 11:37:43;;;;;;;180.30;45.43;;;;;;;;;;5114982;28;20201;-67
2021/12/06 11:40:13;;;;;;;168.60;45.83;;;;;;;;;;5116098;27;20193;-67
2021/12/06 11:42:56;;;;;;;197.27;47.47;;;;;;;;;;5116231;28;20202;-68
2021/12/06 11:45:43;;;;;;;165.43;46.60;;;;;;;;;;5116119;28;20182;-67
2021/12/06 11:48:13;;;;;;;155.77;43.60;;;;;;;;;;5116154;28;20204;-67
2021/12/06 11:50:48;;;;;;;160.47;44.30;;;;;;;;;;5116058;28;20187;-67
2021/12/06 11:53:18;;;;;;;166.70;43.23;;;;;;;;;;5118360;27;20578;-72
2021/12/06 11:55:57;;;;;;;128.57;39.40;;;;;;;;;;5126528;27;20193;-68
2021/12/06 11:58:28;;;;;;;148.37;39.83;;;;;;;;;;5126979;27;20182;-70
2021/12/06 12:01:08;;;;;;;133.70;38.57;;;;;;;;;;5125351;27;20530;-71
2021/12/06 12:03:38;;;;;;;130.80;37.43;;;;;;;;;;5123736;27;20185;-69
2021/12/06 12:06:20;;;;;;;133.23;40.60;;;;;;;;;;5124454;27;20182;-69
2021/12/06 12:08:48;;;;;;;133.97;39.70;;;;;;;;;;5123235;27;20257;-70
2021/12/06 12:11:15;;;;;;;143.17;40.23;;;;;;;;;;5125915;27;20232;-68
2021/12/06 12:13:43;;;;;;;142.27;41.10;;;;;;;;;;5126241;27;20568;-70
2021/12/06 12:16:12;;;;;;;117.90;36.73;;;;;;;;;;5126155;27;20590;-70
2021/12/06 12:18:41;;;;;;;110.90;33.80;;;;;;;;;;5124356;27;20197;-69
2021/12/06 12:21:09;;;;;;;101.10;37.33;;;;;;;;;;5123482;27;20242;-70
2021/12/06 12:23:37;;;;;;;106.73;35.40;;;;;;;;;;5126261;27;20312;-70
2021/12/06 12:26:10;;;;;;;109.23;34.40;;;;;;;;;;5123559;27;20269;-69
2021/12/06 12:28:58;;;;;;;99.03;32.93;;;;;;;;;;5123769;27;20545;-72
2021/12/06 12:31:28;;;;;;;109.37;34.20;;;;;;;;;;5126074;27;20185;-70
2021/12/06 12:33:56;;;;;;;109.83;34.43;;;;;;;;;;5126115;27;20217;-69
2021/12/06 12:36:24;;;;;;;124.67;37.30;;;;;;;;;;5124175;27;20187;-69
2021/12/06 12:38:56;;;;;;;119.17;35.80;;;;;;;;;;5124294;27;20200;-70
2021/12/06 12:41:28;;;;;;;108.27;36.53;;;;;;;;;;5126671;27;20190;-69
2021/12/06 12:44:07;;;;;;;128.67;38.67;;;;;;;;;;5126419;27;20189;-69
2021/12/06 12:46:41;;;;;;;109.53;36.33;;;;;;;;;;5127461;27;20236;-69
2021/12/06 12:49:13;;;;;;;114.30;34.97;;;;;;;;;;5126040;27;20251;-68
2021/12/06 12:52:00;;;;;;;110.17;34.40;;;;;;;;;;5131441;27;20258;-69
2021/12/06 12:54:30;;;;;;;98.80;32.43;;;;;;;;;;5125749;27;20213;-70
2021/12/06 12:57:03;;;;;;;107.27;35.60;;;;;;;;;;5123488;27;20646;-69
2021/12/06 12:59:36;;;;;;;91.47;30.87;;;;;;;;;;5123723;27;20269;-70
2021/12/06 13:02:19;;;;;;;90.23;34.27;;;;;;;;;;5108604;27;20189;-69
2021/12/06 13:05:01;;;;;;;106.30;34.77;;;;;;;;;;5128619;27;20277;-69
2021/12/06 13:07:39;;;;;;;116.47;51.60;;;;;;;;;;5129784;27;20247;-69
2021/12/06 13:10:34;;;;;;;98.20;37.27;;;;;;;;;;5128381;27;20704;-70
2021/12/06 13:13:27;;;;;;;91.87;33.63;;;;;;;;;;5125473;27;20289;-70
2021/12/06 13:16:11;;;;;;;95.33;39.23;;;;;;;;;;5131399;27;20278;-70
2021/12/06 13:18:53;;;;;;;100.63;40.37;;;;;;;;;;5108924;27;20197;-69
2021/12/06 13:21:37;;;;;;;119.33;45.63;;;;;;;;;;5124881;27;20201;-69
2021/12/06 13:24:24;;;;;;;107.87;41.70;;;;;;;;;;5130726;27;20189;-68
2021/12/06 13:26:55;;;;;;;112.07;42.03;;;;;;;;;;5143796;27;20272;-70
2021/12/06 13:29:42;;;;;;;86.40;30.77;;;;;;;;;;5125739;27;20190;-70
2021/12/06 13:32:26;;;;;;;100.50;34.70;;;;;;;;;;5124855;27;20235;-72
2021/12/06 13:35:15;;;;;;;104.53;36.87;;;;;;;;;;5126014;27;20217;-71
2021/12/06 13:38:11;;;;;;;112.97;47.10;;;;;;;;;;5124592;27;20213;-69
2021/12/06 13:40:58;;;;;;;140.63;49.97;;;;;;;;;;5120945;27;20200;-68
2021/12/06 13:43:33;;;;;;;160.80;52.00;;;;;;;;;;5123781;27;20765;-69
2021/12/06 13:46:05;;;;;;;129.00;44.77;;;;;;;;;;5125592;27;20274;-69
2021/12/06 13:48:39;;;;;;;130.70;46.10;;;;;;;;;;5127340;27;20221;-69
2021/12/06 13:51:34;;;;;;;141.47;52.30;;;;;;;;;;5128903;27;20228;-69
2021/12/06 13:54:07;;;;;;;137.10;45.67;;;;;;;;;;5127847;27;20320;-71
2021/12/06 13:56:42;;;;;;;145.87;49.13;;;;;;;;;;5125586;27;20591;-69
2021/12/06 13:59:13;;;;;;;106.17;34.33;;;;;;;;;;5126846;27;20208;-72
2021/12/06 14:01:46;;;;;;;137.33;44.37;;;;;;;;;;5124154;27;20650;-71
2021/12/06 14:04:21;;;;;;;158.90;54.63;;;;;;;;;;5109868;27;20220;-69
2021/12/06 14:06:54;;;;;;;146.20;45.90;;;;;;;;;;5123431;27;20704;-72
2021/12/06 14:09:32;;;;;;;146.73;50.87;;;;;;;;;;5123191;27;20220;-69
2021/12/06 14:12:03;;;;;;;153.93;49.93;;;;;;;;;;5123612;27;20286;-68
2021/12/06 14:14:37;;;;;;;136.53;41.93;;;;;;;;;;5113380;27;20324;-69
2021/12/06 14:17:10;;;;;;;129.20;44.00;;;;;;;;;;5140038;27;20228;-70
2021/12/06 14:19:38;;;;;;;97.57;35.77;;;;;;;;;;5152520;27;20223;-69
2021/12/06 14:22:06;;;;;;;134.73;44.63;;;;;;;;;;5152823;27;20223;-70
2021/12/06 14:24:37;;;;;;;131.43;45.73;;;;;;;;;;5153450;27;20223;-70
2021/12/06 14:27:05;;;;;;;138.07;46.33;;;;;;;;;;5149321;27;20220;-69
2021/12/06 14:29:33;;;;;;;114.63;37.93;;;;;;;;;;5152918;27;20217;-70
2021/12/06 14:32:05;;;;;;;132.77;46.93;;;;;;;;;;5156822;27;20228;-70
2021/12/06 14:34:40;;;;;;;122.13;45.93;;;;;;;;;;5156057;27;20236;-71
2021/12/06 14:37:10;;;;;;;123.40;41.53;;;;;;;;;;5156234;27;20239;-69
2021/12/06 14:39:41;;;;;;;142.10;46.07;;;;;;;;;;5157720;27;20272;-70
2021/12/06 14:42:12;;;;;;;136.10;46.50;;;;;;;;;;5156854;27;20699;-69